createdAt,value
2022-10-01T00:02:07.022Z,101075.97
2022-10-01T00:04:37.960Z,101077.88
2022-10-01T00:07:09.644Z,101080.19
2022-10-01T00:09:37.371Z,101078.47
2022-10-01T00:12:05.015Z,101086.53
2022-10-01T00:14:33.308Z,101083.16
2022-10-01T00:17:01.053Z,101081.03
2022-10-01T00:19:29.398Z,101084.81
2022-10-01T00:21:57.091Z,101082.50
2022-10-01T00:24:24.680Z,101084.41
2022-10-01T00:26:52.509Z,101082.69
2022-10-01T00:29:20.095Z,101085.06
2022-10-01T00:31:48.360Z,101076.56
2022-10-01T00:34:15.998Z,101078.91
2022-10-01T00:36:43.591Z,101076.78
2022-10-01T00:39:11.647Z,101079.09
2022-10-01T00:41:39.551Z,101077.81
2022-10-01T00:44:38.039Z,101089.47
2022-10-01T00:47:30.407Z,101084.19
2022-10-01T00:50:34.233Z,101091.59
2022-10-01T00:53:05.721Z,101086.31
2022-10-01T00:55:34.164Z,101086.09
2022-10-01T00:58:03.290Z,101082.91
2022-10-01T01:00:31.149Z,101091.84
2022-10-01T01:02:59.006Z,101091.41
2022-10-01T01:05:26.956Z,101097.31
2022-10-01T01:07:54.500Z,101104.09
2022-10-01T01:10:44.197Z,101100.09
2022-10-01T01:13:13.676Z,101105.59
2022-10-01T01:15:59.103Z,101104.75
2022-10-01T01:18:41.779Z,101109.63
2022-10-01T01:21:12.213Z,101104.31
2022-10-01T01:23:59.590Z,101104.31
2022-10-01T01:26:35.267Z,101103.47
2022-10-01T01:29:06.878Z,101095.00
2022-10-01T01:31:38.132Z,101101.97
2022-10-01T01:34:12.486Z,101104.09
2022-10-01T03:02:50.105Z,101149.06
2022-10-01T03:05:17.934Z,101146.69
2022-10-01T03:07:45.960Z,101140.56
2022-10-01T03:10:16.258Z,101139.25
2022-10-01T03:12:45.420Z,101153.16
2022-10-01T03:15:14.215Z,101150.63
2022-10-01T03:17:41.758Z,101155.25
2022-10-01T03:20:09.625Z,101151.38
2022-10-01T03:22:37.955Z,101154.31
2022-10-01T03:25:05.966Z,101145.41
2022-10-01T03:27:34.302Z,101148.16
2022-10-01T03:30:01.942Z,101145.81
2022-10-01T03:32:29.687Z,101143.75
2022-10-01T03:34:57.255Z,101148.84
2022-10-01T03:37:24.983Z,101151.75
2022-10-01T03:39:52.599Z,101144.59
2022-10-01T03:42:20.123Z,101150.06
2022-10-01T03:44:48.630Z,101150.06
2022-10-01T03:47:16.161Z,101147.97
2022-10-01T03:49:43.769Z,101148.63
2022-10-01T03:52:11.372Z,101149.13
2022-10-01T03:54:39.508Z,101161.38
2022-10-01T03:57:08.755Z,101147.47
2022-10-01T03:59:36.894Z,101157.00
2022-10-01T04:02:04.511Z,101155.19
2022-10-01T04:04:32.774Z,101157.16
2022-10-01T04:07:00.483Z,101161.22
2022-10-01T04:09:28.225Z,101144.75
2022-10-01T04:11:56.128Z,101148.34
2022-10-01T04:14:24.799Z,101145.66
2022-10-01T04:16:52.852Z,101154.16
2022-10-01T04:19:20.832Z,101152.16
2022-10-01T04:21:48.365Z,101153.44
2022-10-01T04:24:17.319Z,101160.34
2022-10-01T04:26:44.892Z,101160.00
2022-10-01T04:29:12.369Z,101158.63
2022-10-01T04:31:40.482Z,101160.38
2022-10-01T04:34:08.124Z,101157.53
2022-10-01T04:36:35.723Z,101142.66
2022-10-01T04:39:04.239Z,101154.59
2022-10-01T04:41:32.105Z,101150.94
2022-10-01T04:44:00.293Z,101146.00
2022-10-01T04:46:30.395Z,101147.31
2022-10-01T04:48:58.291Z,101149.50
2022-10-01T04:51:26.186Z,101140.25
2022-10-01T04:53:53.996Z,101131.81
2022-10-01T04:56:21.601Z,101135.41
2022-10-01T04:58:49.313Z,101134.38
2022-10-01T05:01:16.838Z,101139.03
2022-10-01T05:03:44.429Z,101142.03
2022-10-01T05:06:12.090Z,101143.91
2022-10-01T05:08:39.637Z,101148.75
2022-10-01T05:11:07.747Z,101156.16
2022-10-01T05:13:35.313Z,101166.75
2022-10-01T05:16:03.913Z,101165.22
2022-10-01T05:18:32.544Z,101172.84
2022-10-01T05:21:05.384Z,101166.25
2022-10-01T05:23:33.484Z,101156.47
2022-10-01T05:26:01.036Z,101154.75
2022-10-01T05:28:29.257Z,101159.78
2022-10-01T05:31:00.523Z,101156.13
2022-10-01T05:33:29.795Z,101163.66
2022-10-01T05:35:57.952Z,101166.16
2022-10-01T05:38:26.175Z,101160.91
2022-10-01T05:40:53.771Z,101167.78
2022-10-01T05:43:21.275Z,101182.47
2022-10-01T05:45:49.858Z,101179.09
2022-10-01T05:48:17.557Z,101182.41
2022-10-01T05:50:50.067Z,101193.41
2022-10-01T05:53:17.827Z,101188.84
2022-10-01T05:55:45.409Z,101187.19
2022-10-01T05:58:13.801Z,101196.09
2022-10-01T06:00:41.932Z,101196.34
2022-10-01T06:03:12.879Z,101202.69
2022-10-01T06:05:40.961Z,101202.31
2022-10-01T06:08:09.905Z,101203.97
2022-10-01T06:10:38.075Z,101205.88
2022-10-01T06:13:05.773Z,101201.34
2022-10-01T06:15:39.876Z,101214.50
2022-10-01T06:18:08.378Z,101207.34
2022-10-01T06:20:36.689Z,101204.16
2022-10-01T06:23:11.426Z,101214.72
2022-10-01T06:25:42.893Z,101206.06
2022-10-01T06:28:11.931Z,101201.53
2022-10-01T06:30:40.231Z,101204.50
2022-10-01T06:33:09.465Z,101204.63
2022-10-01T06:35:43.793Z,101193.13
2022-10-01T06:38:11.581Z,101192.00
2022-10-01T06:43:08.501Z,101206.06
2022-10-01T06:45:43.682Z,101208.75
2022-10-01T06:48:15.707Z,101215.97
2022-10-01T06:50:44.049Z,101210.81
2022-10-01T06:53:12.230Z,101213.03
2022-10-01T06:55:39.923Z,101215.03
2022-10-01T06:58:10.300Z,101217.94
2022-10-01T07:00:39.233Z,101220.72
2022-10-01T07:03:11.044Z,101213.16
2022-10-01T07:05:39.137Z,101205.56
2022-10-01T07:08:06.823Z,101206.28
2022-10-01T07:10:38.537Z,101203.75
2022-10-01T07:13:07.746Z,101208.94
2022-10-01T07:15:35.291Z,101210.63
2022-10-01T07:18:03.305Z,101209.06
2022-10-01T07:20:39.639Z,101212.91
2022-10-01T07:23:08.824Z,101203.03
2022-10-01T07:25:38.799Z,101205.56
2022-10-01T07:28:07.669Z,101208.50
2022-10-01T07:30:35.337Z,101203.38
2022-10-01T07:33:03.039Z,101209.31
2022-10-01T07:35:30.524Z,101208.28
2022-10-01T07:37:58.068Z,101208.91
2022-10-01T07:40:27.667Z,101216.34
2022-10-01T07:42:56.675Z,101216.81
2022-10-01T07:45:24.399Z,101219.72
2022-10-01T07:47:56.511Z,101221.47
2022-10-01T07:50:25.467Z,101225.53
2022-10-01T07:52:56.716Z,101224.25
2022-10-01T07:55:27.061Z,101222.19
2022-10-01T07:57:55.582Z,101222.06
2022-10-01T08:00:24.598Z,101219.13
2022-10-01T08:02:53.819Z,101215.50
2022-10-01T08:05:25.579Z,101215.63
2022-10-01T08:07:54.203Z,101208.81
2022-10-01T08:10:23.397Z,101210.25
2022-10-01T08:12:51.304Z,101196.25
2022-10-01T08:15:18.881Z,101197.19
2022-10-01T08:17:46.501Z,101197.19
2022-10-01T08:20:14.105Z,101195.34
2022-10-01T08:22:43.049Z,101201.97
2022-10-01T08:25:10.527Z,101212.50
2022-10-01T08:27:42.075Z,101198.03
2022-10-01T08:30:10.040Z,101200.91
2022-10-01T08:32:37.577Z,101198.06
2022-10-01T08:35:07.927Z,101193.03
2022-10-01T08:37:35.789Z,101193.56
2022-10-01T08:40:03.492Z,101197.53
2022-10-01T08:42:53.707Z,101187.84
2022-10-01T08:45:29.790Z,101178.91
2022-10-01T08:48:06.042Z,101182.59
2022-10-01T08:50:41.470Z,101172.75
2022-10-01T08:53:15.427Z,101175.44
2022-10-01T08:55:43.285Z,101178.72
2022-10-01T08:58:12.689Z,101174.75
2022-10-01T09:00:42.107Z,101168.69
2022-10-01T09:03:12.469Z,101165.66
2022-10-01T09:05:47.941Z,101167.81
2022-10-01T09:08:43.841Z,101162.25
2022-10-01T09:11:45.391Z,101156.00
2022-10-01T09:14:19.495Z,101157.13
2022-10-01T09:17:00.462Z,101161.25
2022-10-01T09:19:33.965Z,101160.19
2022-10-01T09:22:06.453Z,101154.63
2022-10-01T09:24:42.269Z,101139.69
2022-10-01T09:27:15.932Z,101130.53
2022-10-01T09:29:55.545Z,101128.34
2022-10-01T09:32:25.167Z,101122.53
2022-10-01T09:34:52.876Z,101124.53
2022-10-01T09:37:28.635Z,101128.19
2022-10-01T09:40:23.740Z,101132.19
2022-10-01T09:42:52.174Z,101129.97
2022-10-01T09:45:25.126Z,101134.53
2022-10-01T09:47:54.550Z,101134.53
2022-10-01T09:50:48.987Z,101135.38
2022-10-01T09:53:18.440Z,101135.84
2022-10-01T09:55:48.134Z,101130.56
2022-10-01T09:58:18.257Z,101138.66
2022-10-01T10:00:45.867Z,101123.38
2022-10-01T10:03:22.948Z,101121.81
2022-10-01T10:05:50.989Z,101110.56
2022-10-01T10:08:27.994Z,101114.22
2022-10-01T10:11:02.819Z,101120.25
2022-10-01T10:13:40.157Z,101110.50
2022-10-01T10:16:29.125Z,101114.41
2022-10-01T10:18:59.016Z,101107.19
2022-10-01T10:21:28.796Z,101102.19
2022-10-01T10:24:01.183Z,101101.97
2022-10-01T10:26:34.276Z,101095.28
2022-10-01T10:29:02.887Z,101097.56
2022-10-01T10:31:40.836Z,101104.13
2022-10-01T10:34:14.132Z,101103.03
2022-10-01T10:36:41.953Z,101101.53
2022-10-01T10:39:22.232Z,101094.78
2022-10-01T10:41:49.793Z,101098.06
2022-10-01T10:44:21.311Z,101099.97
2022-10-01T10:46:49.350Z,101089.00
2022-10-01T10:49:21.916Z,101092.28
2022-10-01T10:51:54.217Z,101086.50
2022-10-01T10:54:24.902Z,101074.81
2022-10-01T10:57:22.736Z,101076.97
2022-10-01T11:00:18.734Z,101081.50
2022-10-01T11:02:59.728Z,101068.94
2022-10-01T11:05:30.105Z,101072.78
2022-10-01T11:07:59.963Z,101078.75
2022-10-01T11:10:27.553Z,101065.22
2022-10-01T11:13:01.207Z,101061.72
2022-10-01T11:15:45.828Z,101071.16
2022-10-01T11:18:47.514Z,101059.25
2022-10-01T11:21:39.443Z,101070.47
2022-10-01T11:24:15.963Z,101068.25
2022-10-01T11:27:01.472Z,101074.81
2022-10-01T11:29:53.103Z,101072.19
2022-10-01T11:33:00.753Z,101061.47
2022-10-01T11:35:49.736Z,101060.78
2022-10-01T11:38:17.236Z,101060.22
2022-10-01T11:41:06.413Z,101062.59
2022-10-01T11:43:45.047Z,101058.81
2022-10-01T11:46:14.590Z,101063.78
2022-10-01T11:48:46.108Z,101059.66
2022-10-01T11:51:16.408Z,101063.78
2022-10-01T11:53:55.107Z,101066.41
2022-10-01T11:56:45.466Z,101063.13
2022-10-01T11:59:20.412Z,101058.81
2022-10-01T12:02:26.980Z,101060.56
2022-10-01T12:05:07.755Z,101052.97
2022-10-01T12:07:55.472Z,101054.81
2022-10-01T12:10:30.665Z,101054.94
2022-10-01T12:13:07.514Z,101047.66
2022-10-01T12:15:58.409Z,101055.25
2022-10-01T12:18:31.101Z,101054.59
2022-10-01T12:21:03.348Z,101052.88
2022-10-01T12:23:52.357Z,101048.31
2022-10-01T12:26:38.731Z,101052.09
2022-10-01T12:29:21.369Z,101051.09
2022-10-01T12:31:51.474Z,101051.34
2022-10-01T12:34:36.882Z,101042.00
2022-10-01T12:37:33.283Z,101036.75
2022-10-01T12:40:10.430Z,101036.66
2022-10-01T12:42:37.962Z,101047.25
2022-10-01T12:45:25.878Z,101043.38
2022-10-01T12:48:19.605Z,101045.16
2022-10-01T12:51:21.864Z,101039.06
2022-10-01T12:54:21.362Z,101046.00
2022-10-01T12:57:10.685Z,101039.53
2022-10-01T12:59:59.173Z,101038.19
2022-10-01T13:02:52.143Z,101041.19
2022-10-01T13:05:41.494Z,101039.84
2022-10-01T13:08:18.123Z,101042.41
2022-10-01T13:11:03.670Z,101036.53
2022-10-01T13:13:34.980Z,101035.13
2022-10-01T13:16:27.608Z,101038.78
2022-10-01T13:19:17.829Z,101037.69
2022-10-01T13:21:57.637Z,101037.06
2022-10-01T13:24:49.563Z,101039.53
2022-10-01T13:27:39.604Z,101037.28
2022-10-01T13:30:16.785Z,101045.81
2022-10-01T13:32:53.682Z,101043.69
2022-10-01T13:35:35.900Z,101040.31
2022-10-01T13:38:17.586Z,101043.81
2022-10-01T13:40:44.938Z,101036.38
2022-10-01T13:43:20.107Z,101030.00
2022-10-01T13:45:49.674Z,101036.22
2022-10-01T13:48:23.726Z,101024.84
2022-10-01T13:50:58.976Z,101022.94
2022-10-01T13:53:26.778Z,101019.38
2022-10-01T13:55:54.564Z,101013.78
2022-10-01T13:58:31.738Z,101016.63
2022-10-01T14:01:01.459Z,101010.44
2022-10-01T14:03:33.779Z,101009.13
2022-10-01T14:06:03.689Z,101004.97
2022-10-01T14:08:38.672Z,101009.16
2022-10-01T14:11:29.686Z,101014.44
2022-10-01T14:14:17.136Z,101004.97
2022-10-01T14:16:46.010Z,101005.50
2022-10-01T14:19:20.472Z,101006.00
2022-10-01T14:22:16.457Z,101003.38
2022-10-01T14:24:59.327Z,101004.56
2022-10-01T14:27:35.227Z,101000.16
2022-10-01T14:30:09.785Z,101002.16
2022-10-01T14:32:59.153Z,101000.75
2022-10-01T14:35:59.305Z,100995.34
2022-10-01T14:38:27.009Z,100995.81
2022-10-01T14:40:54.726Z,100994.16
2022-10-01T14:43:23.931Z,100983.91
2022-10-01T14:45:54.053Z,100981.69
2022-10-01T14:48:23.079Z,100973.97
2022-10-01T14:50:53.329Z,100984.50
2022-10-01T14:53:22.834Z,100979.50
2022-10-01T14:55:55.612Z,100977.50
2022-10-01T14:58:33.416Z,100974.78
2022-10-01T15:01:02.325Z,100967.91
2022-10-01T15:03:39.435Z,100963.03
2022-10-01T15:06:15.254Z,100961.53
2022-10-01T15:08:45.274Z,100961.63
2022-10-01T15:11:28.493Z,100958.00
2022-10-01T15:14:01.793Z,100966.53
2022-10-01T15:16:29.927Z,100964.53
2022-10-01T15:19:02.247Z,100958.31
2022-10-01T15:21:38.432Z,100959.81
2022-10-01T15:24:26.018Z,100953.81
2022-10-01T15:26:54.197Z,100954.16
2022-10-01T15:29:21.860Z,100946.00
2022-10-01T15:31:50.264Z,100946.69
2022-10-01T15:34:19.320Z,100944.38
2022-10-01T15:36:48.294Z,100939.31
2022-10-01T15:39:25.627Z,100938.09
2022-10-01T15:41:53.567Z,100945.72
2022-10-01T15:44:38.453Z,100940.63
2022-10-01T15:47:41.499Z,100944.25
2022-10-01T15:50:09.027Z,100933.97
2022-10-01T15:52:52.390Z,100922.88
2022-10-01T15:55:24.174Z,100922.66
2022-10-01T15:57:56.617Z,100924.44
2022-10-01T16:00:26.654Z,100913.00
2022-10-01T16:02:55.113Z,100913.09
2022-10-01T16:05:25.026Z,100907.28
2022-10-01T16:07:56.367Z,100905.22
2022-10-01T16:10:38.063Z,100908.28
2022-10-01T16:13:41.359Z,100905.22
2022-10-01T16:16:29.681Z,100905.06
2022-10-01T16:19:22.880Z,100910.81
2022-10-01T16:22:37.668Z,100903.22
2022-10-01T16:25:28.737Z,100902.06
2022-10-01T16:28:04.710Z,100907.44
2022-10-01T16:30:34.039Z,100900.72
2022-10-01T16:33:02.595Z,100897.78
2022-10-01T16:35:35.988Z,100892.25
2022-10-01T16:38:09.773Z,100873.66
2022-10-01T16:40:42.382Z,100869.44
2022-10-01T16:43:18.637Z,100871.78
2022-10-01T16:45:46.414Z,100866.94
2022-10-01T16:48:19.721Z,100865.25
2022-10-01T16:50:47.606Z,100855.06
2022-10-01T16:53:16.840Z,100855.91
2022-10-01T16:55:44.827Z,100843.03
2022-10-01T16:58:13.093Z,100849.78
2022-10-01T17:00:40.814Z,100847.69
2022-10-01T17:03:14.257Z,100848.09
2022-10-01T17:05:42.444Z,100843.88
2022-10-01T17:08:13.069Z,100838.59
2022-10-01T17:10:53.830Z,100843.47
2022-10-01T17:13:23.125Z,100826.94
2022-10-01T17:15:51.919Z,100823.72
2022-10-01T17:18:19.858Z,100828.19
2022-10-01T17:20:47.720Z,100819.66
2022-10-01T17:23:16.837Z,100820.53
2022-10-01T17:25:45.977Z,100816.06
2022-10-01T17:28:18.076Z,100819.47
2022-10-01T17:30:47.817Z,100816.06
2022-10-01T17:33:16.641Z,100805.72
2022-10-01T17:35:45.897Z,100809.56
2022-10-01T17:38:13.838Z,100816.38
2022-10-01T17:40:42.347Z,100811.47
2022-10-01T17:43:11.616Z,100809.41
2022-10-01T17:45:39.435Z,100809.84
2022-10-01T17:48:07.061Z,100807.16
2022-10-01T17:50:34.772Z,100815.88
2022-10-01T17:53:02.393Z,100810.81
2022-10-01T17:55:30.134Z,100811.22
2022-10-01T17:57:57.907Z,100804.25
2022-10-01T18:00:25.514Z,100796.44
2022-10-01T18:02:53.903Z,100790.53
2022-10-01T18:05:21.612Z,100782.28
2022-10-01T18:07:51.730Z,100785.47
2022-10-01T18:10:19.387Z,100776.81
2022-10-01T18:12:47.051Z,100775.13
2022-10-01T18:15:14.708Z,100773.44
2022-10-01T18:17:43.647Z,100770.06
2022-10-01T18:20:14.220Z,100774.09
2022-10-01T18:22:42.080Z,100773.50
2022-10-01T18:25:10.075Z,100770.09
2022-10-01T18:27:38.431Z,100768.88
2022-10-01T18:30:06.713Z,100763.59
2022-10-01T18:32:41.237Z,100761.03
2022-10-01T18:35:26.114Z,100759.38
2022-10-01T18:37:56.052Z,100753.88
2022-10-01T18:40:27.854Z,100755.97
2022-10-01T18:43:13.181Z,100754.75
2022-10-01T18:45:41.241Z,100746.94
2022-10-01T18:48:16.879Z,100745.88
2022-10-01T18:51:10.434Z,100742.72
2022-10-01T18:53:53.561Z,100743.56
2022-10-01T18:56:23.208Z,100737.00
2022-10-01T18:59:09.196Z,100737.00
2022-10-01T19:01:39.993Z,100737.81
2022-10-01T19:04:16.411Z,100739.75
2022-10-01T19:06:49.005Z,100732.97
2022-10-01T19:09:17.420Z,100737.19
2022-10-01T19:12:00.115Z,100730.59
2022-10-01T19:14:38.638Z,100730.16
2022-10-01T19:17:15.632Z,100721.63
2022-10-01T19:20:10.579Z,100714.22
2022-10-01T19:23:28.418Z,100715.94
2022-10-01T19:26:05.779Z,100706.56
2022-10-01T19:28:57.743Z,100697.03
2022-10-01T19:31:28.033Z,100702.94
2022-10-01T19:34:24.882Z,100698.28
2022-10-01T19:36:59.949Z,100689.78
2022-10-01T19:39:30.089Z,100688.47
2022-10-01T19:42:13.289Z,100684.44
2022-10-01T19:45:04.666Z,100679.78
2022-10-01T19:47:41.818Z,100672.97
2022-10-01T19:50:33.951Z,100657.31
2022-10-01T19:53:02.454Z,100650.16
2022-10-01T19:55:38.295Z,100654.34
2022-10-01T19:58:18.308Z,100650.19
2022-10-01T20:00:48.121Z,100646.81
2022-10-01T20:03:34.517Z,100641.34
2022-10-01T20:06:14.056Z,100644.66
2022-10-01T20:08:47.266Z,100636.06
2022-10-01T20:11:32.112Z,100638.94
2022-10-01T20:14:35.236Z,100641.25
2022-10-01T20:17:06.652Z,100642.69
2022-10-01T20:20:04.440Z,100626.03
2022-10-01T20:22:34.945Z,100630.13
2022-10-01T20:25:12.672Z,100629.78
2022-10-01T20:27:52.406Z,100634.25
2022-10-01T20:30:20.865Z,100641.25
2022-10-01T20:33:00.841Z,100639.53
2022-10-01T20:35:51.637Z,100634.25
2022-10-01T20:38:21.069Z,100622.81
2022-10-01T20:41:15.741Z,100623.66
2022-10-01T20:44:01.829Z,100617.28
2022-10-01T20:46:34.241Z,100609.88
2022-10-01T20:49:28.173Z,100609.88
2022-10-01T20:52:02.678Z,100601.91
2022-10-01T20:54:39.397Z,100606.72
2022-10-01T20:57:24.546Z,100600.13
2022-10-01T20:59:53.803Z,100604.94
2022-10-01T21:02:26.774Z,100608.41
2022-10-01T21:05:09.739Z,100602.06
2022-10-01T21:07:44.956Z,100588.72
2022-10-01T21:10:33.506Z,100592.56
2022-10-01T21:13:17.507Z,100596.66
2022-10-01T21:16:07.096Z,100593.75
2022-10-01T21:19:16.431Z,100592.53
2022-10-01T21:21:47.298Z,100588.31
2022-10-01T21:24:50.867Z,100584.03
2022-10-01T21:27:21.353Z,100581.75
2022-10-01T21:30:05.705Z,100581.13
2022-10-01T21:33:31.745Z,100574.19
2022-10-01T21:36:07.890Z,100575.03
2022-10-01T21:38:41.181Z,100567.34
2022-10-01T21:41:14.684Z,100569.00
2022-10-01T21:44:02.512Z,100558.22
2022-10-01T21:46:33.468Z,100560.97
2022-10-01T21:49:18.929Z,100570.31
2022-10-01T21:52:10.773Z,100557.38
2022-10-01T21:55:16.282Z,100553.16
2022-10-01T21:57:53.796Z,100552.09
2022-10-01T22:00:25.241Z,100542.97
2022-10-01T22:03:04.689Z,100545.84
2022-10-01T22:05:38.800Z,100537.94
2022-10-01T22:08:15.162Z,100529.53
2022-10-01T22:10:48.909Z,100532.53
2022-10-01T22:13:22.131Z,100532.41
2022-10-01T22:15:52.432Z,100524.94
2022-10-01T22:18:34.473Z,100514.28
2022-10-01T22:21:03.250Z,100517.03
2022-10-01T22:23:30.746Z,100517.28
2022-10-01T22:26:01.395Z,100511.78
2022-10-01T22:28:39.046Z,100507.78
2022-10-01T22:31:07.067Z,100506.34
2022-10-01T22:33:40.609Z,100503.13
2022-10-01T22:36:13.804Z,100499.97
2022-10-01T22:38:48.092Z,100499.16
2022-10-01T22:41:47.422Z,100494.13
2022-10-01T22:44:19.662Z,100493.88
2022-10-01T22:47:21.752Z,100492.19
2022-10-01T22:50:12.660Z,100483.94
2022-10-01T22:52:53.063Z,100481.63
2022-10-01T22:55:38.802Z,100482.09
2022-10-01T22:58:41.258Z,100473.44
2022-10-01T23:01:30.394Z,100463.13
2022-10-01T23:04:22.351Z,100455.25
2022-10-01T23:07:06.524Z,100447.19
2022-10-01T23:10:00.192Z,100447.81
2022-10-01T23:12:42.999Z,100448.41
2022-10-01T23:15:32.249Z,100434.63
2022-10-01T23:18:05.771Z,100429.94
2022-10-01T23:20:39.195Z,100426.22
2022-10-01T23:23:28.533Z,100420.25
2022-10-01T23:26:10.162Z,100424.69
2022-10-01T23:29:01.278Z,100426.81
2022-10-01T23:31:35.174Z,100418.41
2022-10-01T23:34:25.232Z,100416.16
2022-10-01T23:37:14.263Z,100421.31
2022-10-01T23:39:47.577Z,100410.16
2022-10-01T23:42:23.101Z,100410.16
2022-10-01T23:45:09.398Z,100407.38
2022-10-01T23:47:47.015Z,100403.56
2022-10-01T23:50:30.831Z,100404.38
2022-10-01T23:53:22.523Z,100401.03
2022-10-01T23:56:28.205Z,100393.47
2022-10-01T23:58:58.757Z,100391.44
